sensor_id;sensor_type;location;lat;lon;timestamp;temperature;humidity
38854;DHT22;24606;51.992;4.198;2023-02-28T00:02:45;18.40;57.90
38854;DHT22;24606;51.992;4.198;2023-02-28T00:07:48;18.20;58.00
38854;DHT22;24606;51.992;4.198;2023-02-28T00:12:51;18.20;58.00
38854;DHT22;24606;51.992;4.198;2023-02-28T00:17:55;18.30;57.90
38854;DHT22;24606;51.992;4.198;2023-02-28T00:22:57;18.30;57.90
38854;DHT22;24606;51.992;4.198;2023-02-28T00:27:59;18.10;58.10
38854;DHT22;24606;51.992;4.198;2023-02-28T00:33:02;18.20;57.90
38854;DHT22;24606;51.992;4.198;2023-02-28T00:38:04;18.10;57.90
38854;DHT22;24606;51.992;4.198;2023-02-28T00:43:06;18.10;57.90
38854;DHT22;24606;51.992;4.198;2023-02-28T00:48:09;18.10;57.90
38854;DHT22;24606;51.992;4.198;2023-02-28T00:53:11;18.10;57.90
38854;DHT22;24606;51.992;4.198;2023-02-28T00:58:13;18.00;57.70
38854;DHT22;24606;51.992;4.198;2023-02-28T01:03:17;18.00;57.90
38854;DHT22;24606;51.992;4.198;2023-02-28T01:08:19;18.00;57.80
38854;DHT22;24606;51.992;4.198;2023-02-28T01:13:21;18.00;57.90
38854;DHT22;24606;51.992;4.198;2023-02-28T01:18:25;18.00;57.70
38854;DHT22;24606;51.992;4.198;2023-02-28T01:23:27;17.90;57.80
38854;DHT22;24606;51.992;4.198;2023-02-28T01:28:29;17.90;57.70
38854;DHT22;24606;51.992;4.198;2023-02-28T01:33:32;17.90;57.50
38854;DHT22;24606;51.992;4.198;2023-02-28T01:38:34;17.90;57.60
38854;DHT22;24606;51.992;4.198;2023-02-28T01:43:52;17.90;57.80
38854;DHT22;24606;51.992;4.198;2023-02-28T01:49:00;17.80;57.60
38854;DHT22;24606;51.992;4.198;2023-02-28T01:54:07;17.80;58.30
38854;DHT22;24606;51.992;4.198;2023-02-28T01:59:20;17.80;57.80
38854;DHT22;24606;51.992;4.198;2023-02-28T02:04:27;17.80;57.60
38854;DHT22;24606;51.992;4.198;2023-02-28T02:09:34;17.70;57.70
38854;DHT22;24606;51.992;4.198;2023-02-28T02:14:47;17.70;57.90
38854;DHT22;24606;51.992;4.198;2023-02-28T02:20:16;17.70;57.80
38854;DHT22;24606;51.992;4.198;2023-02-28T02:25:30;17.70;57.60
38854;DHT22;24606;51.992;4.198;2023-02-28T02:30:50;17.70;57.80
38854;DHT22;24606;51.992;4.198;2023-02-28T02:36:04;17.70;57.80
38854;DHT22;24606;51.992;4.198;2023-02-28T02:41:14;17.60;57.60
38854;DHT22;24606;51.992;4.198;2023-02-28T02:46:19;17.60;57.70
38854;DHT22;24606;51.992;4.198;2023-02-28T02:51:24;17.60;57.60
38854;DHT22;24606;51.992;4.198;2023-02-28T02:56:28;17.60;57.50
38854;DHT22;24606;51.992;4.198;2023-02-28T03:01:32;17.60;57.40
38854;DHT22;24606;51.992;4.198;2023-02-28T03:06:36;17.50;58.30
38854;DHT22;24606;51.992;4.198;2023-02-28T03:11:39;17.50;57.50
38854;DHT22;24606;51.992;4.198;2023-02-28T03:16:53;17.50;57.30
38854;DHT22;24606;51.992;4.198;2023-02-28T03:22:21;17.60;57.60
38854;DHT22;24606;51.992;4.198;2023-02-28T03:27:28;17.50;57.60
38854;DHT22;24606;51.992;4.198;2023-02-28T03:32:35;17.50;57.60
38854;DHT22;24606;51.992;4.198;2023-02-28T03:37:42;17.50;57.60
38854;DHT22;24606;51.992;4.198;2023-02-28T03:42:47;17.50;57.70
38854;DHT22;24606;51.992;4.198;2023-02-28T03:47:52;17.50;57.40
38854;DHT22;24606;51.992;4.198;2023-02-28T03:53:00;17.40;57.70
38854;DHT22;24606;51.992;4.198;2023-02-28T03:58:11;17.40;57.80
38854;DHT22;24606;51.992;4.198;2023-02-28T04:03:14;17.40;57.80
38854;DHT22;24606;51.992;4.198;2023-02-28T04:08:17;17.40;57.60
38854;DHT22;24606;51.992;4.198;2023-02-28T04:13:19;17.30;57.80
38854;DHT22;24606;51.992;4.198;2023-02-28T04:18:21;17.40;57.40
38854;DHT22;24606;51.992;4.198;2023-02-28T04:23:24;17.40;57.70
38854;DHT22;24606;51.992;4.198;2023-02-28T04:28:26;17.30;57.60
38854;DHT22;24606;51.992;4.198;2023-02-28T04:33:29;17.40;57.40
38854;DHT22;24606;51.992;4.198;2023-02-28T04:38:34;17.40;57.60
38854;DHT22;24606;51.992;4.198;2023-02-28T04:43:36;17.30;57.60
38854;DHT22;24606;51.992;4.198;2023-02-28T04:48:39;17.30;57.80
38854;DHT22;24606;51.992;4.198;2023-02-28T04:53:43;17.20;57.90
38854;DHT22;24606;51.992;4.198;2023-02-28T04:58:45;17.40;57.50
38854;DHT22;24606;51.992;4.198;2023-02-28T05:03:47;17.70;57.00
38854;DHT22;24606;51.992;4.198;2023-02-28T05:08:51;17.80;56.80
38854;DHT22;24606;51.992;4.198;2023-02-28T05:13:53;17.90;56.50
38854;DHT22;24606;51.992;4.198;2023-02-28T05:18:56;18.00;56.40
38854;DHT22;24606;51.992;4.198;2023-02-28T05:24:01;18.10;56.40
38854;DHT22;24606;51.992;4.198;2023-02-28T05:29:03;18.20;56.40
38854;DHT22;24606;51.992;4.198;2023-02-28T05:34:06;18.30;56.30
38854;DHT22;24606;51.992;4.198;2023-02-28T05:39:09;18.30;56.30
38854;DHT22;24606;51.992;4.198;2023-02-28T05:44:13;18.40;56.40
38854;DHT22;24606;51.992;4.198;2023-02-28T05:49:14;18.40;56.50
38854;DHT22;24606;51.992;4.198;2023-02-28T05:54:18;18.40;56.60
38854;DHT22;24606;51.992;4.198;2023-02-28T05:59:19;18.40;56.80
38854;DHT22;24606;51.992;4.198;2023-02-28T06:04:21;18.30;57.00
38854;DHT22;24606;51.992;4.198;2023-02-28T06:09:25;18.30;57.00
38854;DHT22;24606;51.992;4.198;2023-02-28T06:14:27;18.30;57.40
38854;DHT22;24606;51.992;4.198;2023-02-28T06:19:28;18.30;57.40
38854;DHT22;24606;51.992;4.198;2023-02-28T06:24:32;18.20;57.50
38854;DHT22;24606;51.992;4.198;2023-02-28T06:29:34;18.20;57.50
38854;DHT22;24606;51.992;4.198;2023-02-28T06:34:36;18.20;57.60
38854;DHT22;24606;51.992;4.198;2023-02-28T06:39:39;18.20;57.70
38854;DHT22;24606;51.992;4.198;2023-02-28T06:44:41;18.20;57.70
38854;DHT22;24606;51.992;4.198;2023-02-28T06:49:43;18.20;57.60
38854;DHT22;24606;51.992;4.198;2023-02-28T06:54:47;18.20;57.60
38854;DHT22;24606;51.992;4.198;2023-02-28T07:00:02;18.20;57.60
38854;DHT22;24606;51.992;4.198;2023-02-28T07:14:07;18.30;57.10
38854;DHT22;24606;51.992;4.198;2023-02-28T07:19:09;18.20;57.70
38854;DHT22;24606;51.992;4.198;2023-02-28T07:24:11;18.20;57.70
38854;DHT22;24606;51.992;4.198;2023-02-28T07:29:17;18.30;57.60
38854;DHT22;24606;51.992;4.198;2023-02-28T07:34:19;18.30;57.60
38854;DHT22;24606;51.992;4.198;2023-02-28T07:39:22;18.30;57.80
38854;DHT22;24606;51.992;4.198;2023-02-28T07:44:25;18.30;57.80
38854;DHT22;24606;51.992;4.198;2023-02-28T07:49:27;18.30;57.80
38854;DHT22;24606;51.992;4.198;2023-02-28T07:54:29;18.20;58.00
38854;DHT22;24606;51.992;4.198;2023-02-28T07:59:32;18.20;58.20
38854;DHT22;24606;51.992;4.198;2023-02-28T08:04:34;18.10;58.50
38854;DHT22;24606;51.992;4.198;2023-02-28T08:09:36;18.20;58.30
38854;DHT22;24606;51.992;4.198;2023-02-28T08:14:39;18.10;58.60
38854;DHT22;24606;51.992;4.198;2023-02-28T08:19:41;18.10;58.70
38854;DHT22;24606;51.992;4.198;2023-02-28T08:24:43;18.00;58.90
38854;DHT22;24606;51.992;4.198;2023-02-28T08:29:47;18.00;59.10
38854;DHT22;24606;51.992;4.198;2023-02-28T08:34:48;17.80;59.30
38854;DHT22;24606;51.992;4.198;2023-02-28T08:39:50;17.80;59.70
38854;DHT22;24606;51.992;4.198;2023-02-28T08:44:54;17.80;59.70
38854;DHT22;24606;51.992;4.198;2023-02-28T08:49:56;17.80;59.60
38854;DHT22;24606;51.992;4.198;2023-02-28T08:54:58;17.70;59.70
38854;DHT22;24606;51.992;4.198;2023-02-28T09:00:02;17.70;59.60
38854;DHT22;24606;51.992;4.198;2023-02-28T09:05:05;17.70;59.70
38854;DHT22;24606;51.992;4.198;2023-02-28T09:10:08;17.60;59.70
38854;DHT22;24606;51.992;4.198;2023-02-28T09:15:12;17.60;59.90
38854;DHT22;24606;51.992;4.198;2023-02-28T09:20:14;17.50;60.10
38854;DHT22;24606;51.992;4.198;2023-02-28T09:25:16;17.60;59.80
38854;DHT22;24606;51.992;4.198;2023-02-28T09:30:19;17.60;59.80
38854;DHT22;24606;51.992;4.198;2023-02-28T09:35:23;17.60;59.50
38854;DHT22;24606;51.992;4.198;2023-02-28T09:40:26;17.60;59.60
38854;DHT22;24606;51.992;4.198;2023-02-28T09:45:30;17.50;59.40
38854;DHT22;24606;51.992;4.198;2023-02-28T09:50:36;17.50;59.30
38854;DHT22;24606;51.992;4.198;2023-02-28T09:55:42;17.60;59.30
38854;DHT22;24606;51.992;4.198;2023-02-28T10:00:51;17.60;59.10
38854;DHT22;24606;51.992;4.198;2023-02-28T10:06:00;17.60;59.20
38854;DHT22;24606;51.992;4.198;2023-02-28T10:11:07;17.50;59.20
38854;DHT22;24606;51.992;4.198;2023-02-28T10:16:14;17.50;59.20
38854;DHT22;24606;51.992;4.198;2023-02-28T10:21:21;17.40;59.20
38854;DHT22;24606;51.992;4.198;2023-02-28T10:26:26;17.50;59.10
38854;DHT22;24606;51.992;4.198;2023-02-28T10:31:31;17.40;59.20
38854;DHT22;24606;51.992;4.198;2023-02-28T10:36:34;17.40;59.20
38854;DHT22;24606;51.992;4.198;2023-02-28T10:41:42;17.50;59.10
38854;DHT22;24606;51.992;4.198;2023-02-28T10:46:46;17.40;59.10
38854;DHT22;24606;51.992;4.198;2023-02-28T10:51:52;17.50;58.80
38854;DHT22;24606;51.992;4.198;2023-02-28T10:57:18;17.50;58.80
38854;DHT22;24606;51.992;4.198;2023-02-28T11:02:33;17.40;58.90
38854;DHT22;24606;51.992;4.198;2023-02-28T11:07:35;17.40;59.00
38854;DHT22;24606;51.992;4.198;2023-02-28T11:12:39;17.40;59.40
38854;DHT22;24606;51.992;4.198;2023-02-28T11:17:54;17.40;59.10
38854;DHT22;24606;51.992;4.198;2023-02-28T11:22:57;17.40;59.00
38854;DHT22;24606;51.992;4.198;2023-02-28T11:28:02;17.40;58.80
38854;DHT22;24606;51.992;4.198;2023-02-28T11:33:27;17.50;58.60
38854;DHT22;24606;51.992;4.198;2023-02-28T11:38:31;17.50;58.50
38854;DHT22;24606;51.992;4.198;2023-02-28T11:43:44;17.50;58.40
38854;DHT22;24606;51.992;4.198;2023-02-28T11:48:57;17.50;58.50
38854;DHT22;24606;51.992;4.198;2023-02-28T11:54:11;17.50;58.60
38854;DHT22;24606;51.992;4.198;2023-02-28T11:59:37;17.70;57.70
38854;DHT22;24606;51.992;4.198;2023-02-28T12:04:54;17.70;57.60
38854;DHT22;24606;51.992;4.198;2023-02-28T12:10:05;17.80;57.40
38854;DHT22;24606;51.992;4.198;2023-02-28T12:15:24;17.80;57.40
38854;DHT22;24606;51.992;4.198;2023-02-28T12:20:34;17.70;57.60
38854;DHT22;24606;51.992;4.198;2023-02-28T12:25:47;17.60;57.90
38854;DHT22;24606;51.992;4.198;2023-02-28T12:30:56;17.50;58.20
38854;DHT22;24606;51.992;4.198;2023-02-28T12:36:07;17.60;57.90
38854;DHT22;24606;51.992;4.198;2023-02-28T12:41:13;17.30;59.00
38854;DHT22;24606;51.992;4.198;2023-02-28T12:46:17;17.30;58.70
38854;DHT22;24606;51.992;4.198;2023-02-28T12:51:22;17.50;57.80
38854;DHT22;24606;51.992;4.198;2023-02-28T12:56:33;17.60;57.50
38854;DHT22;24606;51.992;4.198;2023-02-28T13:07:37;17.50;58.00
38854;DHT22;24606;51.992;4.198;2023-02-28T13:12:48;17.40;58.20
38854;DHT22;24606;51.992;4.198;2023-02-28T13:17:52;17.40;58.10
38854;DHT22;24606;51.992;4.198;2023-02-28T13:22:56;17.60;57.60
38854;DHT22;24606;51.992;4.198;2023-02-28T13:27:59;17.60;57.50
38854;DHT22;24606;51.992;4.198;2023-02-28T13:33:27;17.70;57.00
38854;DHT22;24606;51.992;4.198;2023-02-28T13:38:37;17.70;57.10
38854;DHT22;24606;51.992;4.198;2023-02-28T13:44:01;17.70;57.10
38854;DHT22;24606;51.992;4.198;2023-02-28T13:49:18;17.60;57.40
38854;DHT22;24606;51.992;4.198;2023-02-28T13:54:34;17.90;56.40
38854;DHT22;24606;51.992;4.198;2023-02-28T13:59:48;18.20;55.70
38854;DHT22;24606;51.992;4.198;2023-02-28T14:05:00;18.60;54.90
38854;DHT22;24606;51.992;4.198;2023-02-28T14:10:06;18.70;54.40
38854;DHT22;24606;51.992;4.198;2023-02-28T14:15:28;19.00;54.30
38854;DHT22;24606;51.992;4.198;2023-02-28T14:20:33;19.10;54.10
38854;DHT22;24606;51.992;4.198;2023-02-28T14:25:41;19.30;53.80
38854;DHT22;24606;51.992;4.198;2023-02-28T14:31:01;19.40;53.60
38854;DHT22;24606;51.992;4.198;2023-02-28T14:36:10;19.60;53.60
38854;DHT22;24606;51.992;4.198;2023-02-28T14:41:20;19.60;53.40
38854;DHT22;24606;51.992;4.198;2023-02-28T14:46:25;19.70;53.20
38854;DHT22;24606;51.992;4.198;2023-02-28T14:51:28;19.90;53.20
38854;DHT22;24606;51.992;4.198;2023-02-28T14:56:34;19.90;53.00
38854;DHT22;24606;51.992;4.198;2023-02-28T15:01:37;19.90;53.10
38854;DHT22;24606;51.992;4.198;2023-02-28T15:06:39;20.10;53.00
38854;DHT22;24606;51.992;4.198;2023-02-28T15:11:46;20.10;52.90
38854;DHT22;24606;51.992;4.198;2023-02-28T15:16:52;20.20;52.70
38854;DHT22;24606;51.992;4.198;2023-02-28T15:22:00;20.20;53.20
38854;DHT22;24606;51.992;4.198;2023-02-28T15:27:06;20.30;52.90
38854;DHT22;24606;51.992;4.198;2023-02-28T15:32:24;20.40;52.80
38854;DHT22;24606;51.992;4.198;2023-02-28T15:37:38;20.40;52.50
38854;DHT22;24606;51.992;4.198;2023-02-28T15:42:42;20.40;53.10
38854;DHT22;24606;51.992;4.198;2023-02-28T15:47:45;20.60;52.70
38854;DHT22;24606;51.992;4.198;2023-02-28T15:52:48;20.50;52.90
38854;DHT22;24606;51.992;4.198;2023-02-28T15:57:54;20.60;52.50
38854;DHT22;24606;51.992;4.198;2023-02-28T16:02:59;20.60;52.50
38854;DHT22;24606;51.992;4.198;2023-02-28T16:08:11;20.70;52.20
38854;DHT22;24606;51.992;4.198;2023-02-28T16:13:15;20.90;51.60
38854;DHT22;24606;51.992;4.198;2023-02-28T16:18:17;21.00;51.40
38854;DHT22;24606;51.992;4.198;2023-02-28T16:23:19;21.10;51.00
38854;DHT22;24606;51.992;4.198;2023-02-28T16:28:25;21.20;50.80
38854;DHT22;24606;51.992;4.198;2023-02-28T16:33:30;21.30;50.40
38854;DHT22;24606;51.992;4.198;2023-02-28T16:38:33;21.40;50.20
38854;DHT22;24606;51.992;4.198;2023-02-28T16:43:38;21.50;50.00
38854;DHT22;24606;51.992;4.198;2023-02-28T16:48:40;21.60;49.80
38854;DHT22;24606;51.992;4.198;2023-02-28T16:53:42;21.60;49.60
38854;DHT22;24606;51.992;4.198;2023-02-28T16:58:45;21.50;49.60
38854;DHT22;24606;51.992;4.198;2023-02-28T17:03:48;21.60;49.60
38854;DHT22;24606;51.992;4.198;2023-02-28T17:08:50;21.60;49.60
38854;DHT22;24606;51.992;4.198;2023-02-28T17:13:54;21.50;51.10
38854;DHT22;24606;51.992;4.198;2023-02-28T17:18:58;21.50;51.00
38854;DHT22;24606;51.992;4.198;2023-02-28T17:24:00;21.40;50.70
38854;DHT22;24606;51.992;4.198;2023-02-28T17:29:06;21.40;51.30
38854;DHT22;24606;51.992;4.198;2023-02-28T17:34:12;21.40;51.70
38854;DHT22;24606;51.992;4.198;2023-02-28T17:39:19;21.30;51.60
38854;DHT22;24606;51.992;4.198;2023-02-28T17:44:26;21.20;51.80
38854;DHT22;24606;51.992;4.198;2023-02-28T17:49:27;21.20;51.60
38854;DHT22;24606;51.992;4.198;2023-02-28T17:54:29;21.10;51.90
38854;DHT22;24606;51.992;4.198;2023-02-28T17:59:33;21.10;51.40
38854;DHT22;24606;51.992;4.198;2023-02-28T18:04:35;21.10;51.30
38854;DHT22;24606;51.992;4.198;2023-02-28T18:09:37;21.00;51.40
38854;DHT22;24606;51.992;4.198;2023-02-28T18:14:41;20.90;51.90
38854;DHT22;24606;51.992;4.198;2023-02-28T18:19:43;20.80;52.40
38854;DHT22;24606;51.992;4.198;2023-02-28T18:24:45;20.80;53.30
38854;DHT22;24606;51.992;4.198;2023-02-28T18:29:48;20.70;53.10
38854;DHT22;24606;51.992;4.198;2023-02-28T18:34:52;20.50;53.20
38854;DHT22;24606;51.992;4.198;2023-02-28T18:39:53;20.40;53.50
38854;DHT22;24606;51.992;4.198;2023-02-28T18:44:57;20.30;53.60
38854;DHT22;24606;51.992;4.198;2023-02-28T18:49:59;20.20;53.70
38854;DHT22;24606;51.992;4.198;2023-02-28T18:55:01;20.10;53.80
38854;DHT22;24606;51.992;4.198;2023-02-28T19:00:05;20.10;53.70
38854;DHT22;24606;51.992;4.198;2023-02-28T19:05:08;20.10;53.70
38854;DHT22;24606;51.992;4.198;2023-02-28T19:10:11;20.00;53.60
38854;DHT22;24606;51.992;4.198;2023-02-28T19:15:15;20.00;53.70
38854;DHT22;24606;51.992;4.198;2023-02-28T19:20:17;19.90;53.80
38854;DHT22;24606;51.992;4.198;2023-02-28T19:25:19;19.90;53.90
38854;DHT22;24606;51.992;4.198;2023-02-28T19:30:22;20.20;53.70
38854;DHT22;24606;51.992;4.198;2023-02-28T19:35:25;20.20;53.60
38854;DHT22;24606;51.992;4.198;2023-02-28T19:40:27;20.30;53.80
38854;DHT22;24606;51.992;4.198;2023-02-28T19:45:31;20.30;53.90
38854;DHT22;24606;51.992;4.198;2023-02-28T19:50:33;20.30;53.90
38854;DHT22;24606;51.992;4.198;2023-02-28T19:55:37;20.20;54.10
38854;DHT22;24606;51.992;4.198;2023-02-28T20:00:40;20.20;54.40
38854;DHT22;24606;51.992;4.198;2023-02-28T20:05:43;20.20;54.40
38854;DHT22;24606;51.992;4.198;2023-02-28T20:10:44;20.10;54.50
38854;DHT22;24606;51.992;4.198;2023-02-28T20:15:48;20.10;54.50
38854;DHT22;24606;51.992;4.198;2023-02-28T20:20:50;20.10;54.50
38854;DHT22;24606;51.992;4.198;2023-02-28T20:25:52;20.00;54.50
38854;DHT22;24606;51.992;4.198;2023-02-28T20:30:56;20.00;54.50
38854;DHT22;24606;51.992;4.198;2023-02-28T20:35:58;19.90;54.50
38854;DHT22;24606;51.992;4.198;2023-02-28T20:41:00;19.90;54.30
38854;DHT22;24606;51.992;4.198;2023-02-28T20:46:03;19.90;54.40
38854;DHT22;24606;51.992;4.198;2023-02-28T20:51:06;19.80;55.00
38854;DHT22;24606;51.992;4.198;2023-02-28T20:56:09;19.80;54.40
38854;DHT22;24606;51.992;4.198;2023-02-28T21:01:16;19.80;54.40
38854;DHT22;24606;51.992;4.198;2023-02-28T21:06:20;19.70;54.40
38854;DHT22;24606;51.992;4.198;2023-02-28T21:11:24;19.70;54.40
38854;DHT22;24606;51.992;4.198;2023-02-28T21:16:27;19.60;54.60
38854;DHT22;24606;51.992;4.198;2023-02-28T21:21:31;19.60;54.60
38854;DHT22;24606;51.992;4.198;2023-02-28T21:26:33;19.60;54.70
38854;DHT22;24606;51.992;4.198;2023-02-28T21:31:37;19.60;54.70
38854;DHT22;24606;51.992;4.198;2023-02-28T21:36:40;19.50;54.80
38854;DHT22;24606;51.992;4.198;2023-02-28T21:41:45;19.40;54.80
38854;DHT22;24606;51.992;4.198;2023-02-28T21:46:50;19.40;55.00
38854;DHT22;24606;51.992;4.198;2023-02-28T21:51:54;19.30;55.10
38854;DHT22;24606;51.992;4.198;2023-02-28T21:56:56;19.30;55.30
38854;DHT22;24606;51.992;4.198;2023-02-28T22:02:00;19.20;55.50
38854;DHT22;24606;51.992;4.198;2023-02-28T22:07:05;19.10;55.70
38854;DHT22;24606;51.992;4.198;2023-02-28T22:12:06;19.00;55.80
38854;DHT22;24606;51.992;4.198;2023-02-28T22:17:10;19.00;55.80
38854;DHT22;24606;51.992;4.198;2023-02-28T22:22:11;18.90;55.80
38854;DHT22;24606;51.992;4.198;2023-02-28T22:27:13;18.80;56.10
38854;DHT22;24606;51.992;4.198;2023-02-28T22:32:16;18.70;56.10
38854;DHT22;24606;51.992;4.198;2023-02-28T22:37:18;18.60;56.20
38854;DHT22;24606;51.992;4.198;2023-02-28T22:42:20;18.60;56.30
38854;DHT22;24606;51.992;4.198;2023-02-28T22:47:23;18.50;56.30
38854;DHT22;24606;51.992;4.198;2023-02-28T22:52:26;18.40;55.90
38854;DHT22;24606;51.992;4.198;2023-02-28T22:57:28;18.30;56.50
38854;DHT22;24606;51.992;4.198;2023-02-28T23:02:31;18.30;56.20
38854;DHT22;24606;51.992;4.198;2023-02-28T23:07:33;18.20;56.80
38854;DHT22;24606;51.992;4.198;2023-02-28T23:12:35;18.10;56.80
38854;DHT22;24606;51.992;4.198;2023-02-28T23:17:38;18.10;56.80
38854;DHT22;24606;51.992;4.198;2023-02-28T23:22:40;18.00;56.70
38854;DHT22;24606;51.992;4.198;2023-02-28T23:27:50;18.00;57.20
38854;DHT22;24606;51.992;4.198;2023-02-28T23:32:53;18.00;56.50
38854;DHT22;24606;51.992;4.198;2023-02-28T23:37:55;18.00;57.20
38854;DHT22;24606;51.992;4.198;2023-02-28T23:42:58;17.90;56.80
38854;DHT22;24606;51.992;4.198;2023-02-28T23:48:01;17.90;57.80
38854;DHT22;24606;51.992;4.198;2023-02-28T23:53:03;17.90;57.20
38854;DHT22;24606;51.992;4.198;2023-02-28T23:58:05;17.80;57.30
